sensor_id;sensor_type;location;lat;lon;timestamp;P1;durP1;ratioP1;P2;durP2;ratioP2
15706;SDS011;7953;54.302;10.128;2024-02-15T00:00:09;27.17;;;15.43;;
15706;SDS011;7953;54.302;10.128;2024-02-15T00:02:38;23.40;;;14.43;;
15706;SDS011;7953;54.302;10.128;2024-02-15T00:05:05;26.60;;;16.13;;
15706;SDS011;7953;54.302;10.128;2024-02-15T00:07:33;23.43;;;13.47;;
15706;SDS011;7953;54.302;10.128;2024-02-15T00:10:00;22.23;;;13.07;;
15706;SDS011;7953;54.302;10.128;2024-02-15T00:12:28;21.17;;;12.20;;
15706;SDS011;7953;54.302;10.128;2024-02-15T00:14:56;21.63;;;12.87;;
15706;SDS011;7953;54.302;10.128;2024-02-15T00:17:23;22.40;;;12.27;;
15706;SDS011;7953;54.302;10.128;2024-02-15T00:19:51;21.70;;;12.77;;
15706;SDS011;7953;54.302;10.128;2024-02-15T00:22:18;22.40;;;13.27;;
15706;SDS011;7953;54.302;10.128;2024-02-15T00:24:46;22.97;;;13.23;;
15706;SDS011;7953;54.302;10.128;2024-02-15T00:27:13;20.07;;;12.67;;
15706;SDS011;7953;54.302;10.128;2024-02-15T00:29:40;22.90;;;12.70;;
15706;SDS011;7953;54.302;10.128;2024-02-15T00:32:08;24.03;;;12.63;;
15706;SDS011;7953;54.302;10.128;2024-02-15T00:34:35;23.87;;;13.20;;
15706;SDS011;7953;54.302;10.128;2024-02-15T00:37:05;23.27;;;13.37;;
15706;SDS011;7953;54.302;10.128;2024-02-15T00:39:32;21.10;;;12.40;;
15706;SDS011;7953;54.302;10.128;2024-02-15T00:41:58;21.57;;;13.07;;
15706;SDS011;7953;54.302;10.128;2024-02-15T00:44:26;23.17;;;13.87;;
15706;SDS011;7953;54.302;10.128;2024-02-15T00:46:53;21.87;;;12.60;;
15706;SDS011;7953;54.302;10.128;2024-02-15T00:49:21;21.30;;;12.03;;
15706;SDS011;7953;54.302;10.128;2024-02-15T00:51:48;20.90;;;12.23;;
15706;SDS011;7953;54.302;10.128;2024-02-15T00:54:16;19.63;;;11.67;;
15706;SDS011;7953;54.302;10.128;2024-02-15T00:56:43;22.83;;;11.73;;
15706;SDS011;7953;54.302;10.128;2024-02-15T00:59:10;25.97;;;12.00;;
15706;SDS011;7953;54.302;10.128;2024-02-15T01:01:37;19.70;;;12.17;;
15706;SDS011;7953;54.302;10.128;2024-02-15T01:04:04;23.10;;;13.37;;
15706;SDS011;7953;54.302;10.128;2024-02-15T01:06:31;23.93;;;12.63;;
15706;SDS011;7953;54.302;10.128;2024-02-15T01:08:59;24.43;;;13.67;;
15706;SDS011;7953;54.302;10.128;2024-02-15T01:11:28;25.00;;;12.70;;
15706;SDS011;7953;54.302;10.128;2024-02-15T01:13:57;22.17;;;12.93;;
15706;SDS011;7953;54.302;10.128;2024-02-15T01:16:24;21.83;;;12.57;;
15706;SDS011;7953;54.302;10.128;2024-02-15T01:18:50;23.87;;;13.10;;
15706;SDS011;7953;54.302;10.128;2024-02-15T01:21:17;20.90;;;11.73;;
15706;SDS011;7953;54.302;10.128;2024-02-15T01:23:45;21.00;;;10.93;;
15706;SDS011;7953;54.302;10.128;2024-02-15T01:26:12;19.47;;;10.90;;
15706;SDS011;7953;54.302;10.128;2024-02-15T01:28:40;19.90;;;10.97;;
15706;SDS011;7953;54.302;10.128;2024-02-15T01:31:08;21.37;;;10.37;;
15706;SDS011;7953;54.302;10.128;2024-02-15T01:33:36;16.63;;;10.33;;
15706;SDS011;7953;54.302;10.128;2024-02-15T01:36:03;19.53;;;10.73;;
15706;SDS011;7953;54.302;10.128;2024-02-15T01:38:31;18.80;;;10.67;;
15706;SDS011;7953;54.302;10.128;2024-02-15T01:40:58;16.87;;;9.97;;
15706;SDS011;7953;54.302;10.128;2024-02-15T01:43:24;19.77;;;10.77;;
15706;SDS011;7953;54.302;10.128;2024-02-15T01:45:53;17.00;;;9.83;;
15706;SDS011;7953;54.302;10.128;2024-02-15T01:48:20;18.20;;;9.70;;
15706;SDS011;7953;54.302;10.128;2024-02-15T01:50:47;15.10;;;9.07;;
15706;SDS011;7953;54.302;10.128;2024-02-15T01:53:16;17.37;;;9.60;;
15706;SDS011;7953;54.302;10.128;2024-02-15T01:55:43;15.37;;;8.87;;
15706;SDS011;7953;54.302;10.128;2024-02-15T01:58:10;15.37;;;8.43;;
15706;SDS011;7953;54.302;10.128;2024-02-15T02:00:37;15.10;;;8.73;;
15706;SDS011;7953;54.302;10.128;2024-02-15T02:03:06;14.80;;;9.03;;
15706;SDS011;7953;54.302;10.128;2024-02-15T02:05:34;15.13;;;8.77;;
15706;SDS011;7953;54.302;10.128;2024-02-15T02:08:02;16.90;;;9.33;;
15706;SDS011;7953;54.302;10.128;2024-02-15T02:10:34;15.97;;;9.07;;
15706;SDS011;7953;54.302;10.128;2024-02-15T02:13:01;16.60;;;9.37;;
15706;SDS011;7953;54.302;10.128;2024-02-15T02:15:28;15.17;;;8.87;;
15706;SDS011;7953;54.302;10.128;2024-02-15T02:17:56;17.43;;;9.63;;
15706;SDS011;7953;54.302;10.128;2024-02-15T02:20:25;16.80;;;10.40;;
15706;SDS011;7953;54.302;10.128;2024-02-15T02:22:53;20.13;;;10.60;;
15706;SDS011;7953;54.302;10.128;2024-02-15T02:25:22;16.67;;;8.77;;
15706;SDS011;7953;54.302;10.128;2024-02-15T02:27:52;15.57;;;9.37;;
15706;SDS011;7953;54.302;10.128;2024-02-15T02:30:20;17.33;;;9.47;;
15706;SDS011;7953;54.302;10.128;2024-02-15T02:32:48;16.37;;;9.13;;
15706;SDS011;7953;54.302;10.128;2024-02-15T02:35:15;16.33;;;9.20;;
15706;SDS011;7953;54.302;10.128;2024-02-15T02:37:42;16.87;;;8.73;;
15706;SDS011;7953;54.302;10.128;2024-02-15T02:40:09;15.60;;;9.50;;
15706;SDS011;7953;54.302;10.128;2024-02-15T02:42:47;15.87;;;8.73;;
15706;SDS011;7953;54.302;10.128;2024-02-15T02:45:16;17.33;;;9.33;;
15706;SDS011;7953;54.302;10.128;2024-02-15T02:47:44;15.93;;;9.07;;
15706;SDS011;7953;54.302;10.128;2024-02-15T02:50:12;18.23;;;9.23;;
15706;SDS011;7953;54.302;10.128;2024-02-15T02:52:39;15.40;;;8.70;;
15706;SDS011;7953;54.302;10.128;2024-02-15T02:55:06;13.60;;;8.77;;
15706;SDS011;7953;54.302;10.128;2024-02-15T02:57:34;18.73;;;10.33;;
15706;SDS011;7953;54.302;10.128;2024-02-15T03:00:04;17.03;;;9.87;;
15706;SDS011;7953;54.302;10.128;2024-02-15T03:02:33;20.17;;;9.57;;
15706;SDS011;7953;54.302;10.128;2024-02-15T03:05:01;17.30;;;8.27;;
15706;SDS011;7953;54.302;10.128;2024-02-15T03:07:29;14.60;;;8.27;;
15706;SDS011;7953;54.302;10.128;2024-02-15T03:09:58;16.43;;;9.33;;
15706;SDS011;7953;54.302;10.128;2024-02-15T03:12:25;15.63;;;8.43;;
15706;SDS011;7953;54.302;10.128;2024-02-15T03:14:54;16.53;;;8.40;;
15706;SDS011;7953;54.302;10.128;2024-02-15T03:17:22;16.20;;;8.57;;
15706;SDS011;7953;54.302;10.128;2024-02-15T03:19:49;14.00;;;8.40;;
15706;SDS011;7953;54.302;10.128;2024-02-15T03:22:16;15.43;;;8.80;;
15706;SDS011;7953;54.302;10.128;2024-02-15T03:24:43;14.23;;;7.97;;
15706;SDS011;7953;54.302;10.128;2024-02-15T03:27:10;16.37;;;8.03;;
15706;SDS011;7953;54.302;10.128;2024-02-15T03:29:37;16.00;;;8.20;;
15706;SDS011;7953;54.302;10.128;2024-02-15T03:32:05;12.00;;;7.37;;
15706;SDS011;7953;54.302;10.128;2024-02-15T03:34:33;11.97;;;6.93;;
15706;SDS011;7953;54.302;10.128;2024-02-15T03:37:00;14.83;;;7.77;;
15706;SDS011;7953;54.302;10.128;2024-02-15T03:39:29;11.90;;;7.00;;
15706;SDS011;7953;54.302;10.128;2024-02-15T03:41:58;13.43;;;8.03;;
15706;SDS011;7953;54.302;10.128;2024-02-15T03:44:24;14.03;;;7.43;;
15706;SDS011;7953;54.302;10.128;2024-02-15T03:46:52;13.23;;;7.43;;
15706;SDS011;7953;54.302;10.128;2024-02-15T03:49:20;14.60;;;7.63;;
15706;SDS011;7953;54.302;10.128;2024-02-15T03:51:55;15.90;;;7.93;;
15706;SDS011;7953;54.302;10.128;2024-02-15T03:54:23;16.67;;;8.50;;
15706;SDS011;7953;54.302;10.128;2024-02-15T03:56:50;14.10;;;8.40;;
15706;SDS011;7953;54.302;10.128;2024-02-15T03:59:18;14.17;;;7.73;;
15706;SDS011;7953;54.302;10.128;2024-02-15T04:01:51;16.10;;;8.13;;
15706;SDS011;7953;54.302;10.128;2024-02-15T04:04:18;12.87;;;7.87;;
15706;SDS011;7953;54.302;10.128;2024-02-15T04:06:47;11.27;;;7.03;;
15706;SDS011;7953;54.302;10.128;2024-02-15T04:09:15;10.77;;;6.50;;
15706;SDS011;7953;54.302;10.128;2024-02-15T04:11:43;12.13;;;6.67;;
15706;SDS011;7953;54.302;10.128;2024-02-15T04:14:12;14.93;;;7.33;;
15706;SDS011;7953;54.302;10.128;2024-02-15T04:16:38;15.60;;;7.43;;
15706;SDS011;7953;54.302;10.128;2024-02-15T04:19:05;13.20;;;7.10;;
15706;SDS011;7953;54.302;10.128;2024-02-15T04:21:32;13.73;;;7.33;;
15706;SDS011;7953;54.302;10.128;2024-02-15T04:23:59;12.93;;;6.70;;
15706;SDS011;7953;54.302;10.128;2024-02-15T04:26:27;13.23;;;7.03;;
15706;SDS011;7953;54.302;10.128;2024-02-15T04:28:55;14.03;;;7.47;;
15706;SDS011;7953;54.302;10.128;2024-02-15T04:31:23;15.00;;;7.83;;
15706;SDS011;7953;54.302;10.128;2024-02-15T04:33:51;13.17;;;7.47;;
15706;SDS011;7953;54.302;10.128;2024-02-15T04:36:19;15.80;;;7.50;;
15706;SDS011;7953;54.302;10.128;2024-02-15T04:38:48;14.13;;;7.07;;
15706;SDS011;7953;54.302;10.128;2024-02-15T04:41:16;11.90;;;6.73;;
15706;SDS011;7953;54.302;10.128;2024-02-15T04:43:47;14.43;;;7.20;;
15706;SDS011;7953;54.302;10.128;2024-02-15T04:46:14;10.87;;;6.43;;
15706;SDS011;7953;54.302;10.128;2024-02-15T04:48:41;8.97;;;5.30;;
15706;SDS011;7953;54.302;10.128;2024-02-15T04:51:08;10.70;;;6.37;;
15706;SDS011;7953;54.302;10.128;2024-02-15T04:53:36;12.57;;;6.80;;
15706;SDS011;7953;54.302;10.128;2024-02-15T04:56:04;9.53;;;5.93;;
15706;SDS011;7953;54.302;10.128;2024-02-15T04:58:36;10.67;;;5.27;;
15706;SDS011;7953;54.302;10.128;2024-02-15T05:01:11;10.53;;;5.27;;
15706;SDS011;7953;54.302;10.128;2024-02-15T05:03:39;9.87;;;5.90;;
15706;SDS011;7953;54.302;10.128;2024-02-15T05:06:06;9.37;;;5.30;;
15706;SDS011;7953;54.302;10.128;2024-02-15T05:08:34;9.20;;;5.13;;
15706;SDS011;7953;54.302;10.128;2024-02-15T05:11:07;10.23;;;5.93;;
15706;SDS011;7953;54.302;10.128;2024-02-15T05:13:39;10.73;;;5.80;;
15706;SDS011;7953;54.302;10.128;2024-02-15T05:16:06;8.93;;;6.07;;
15706;SDS011;7953;54.302;10.128;2024-02-15T05:18:34;9.80;;;6.63;;
15706;SDS011;7953;54.302;10.128;2024-02-15T05:21:01;11.33;;;6.83;;
15706;SDS011;7953;54.302;10.128;2024-02-15T05:23:29;11.63;;;7.23;;
15706;SDS011;7953;54.302;10.128;2024-02-15T05:25:56;14.77;;;9.00;;
15706;SDS011;7953;54.302;10.128;2024-02-15T05:28:23;12.10;;;7.77;;
15706;SDS011;7953;54.302;10.128;2024-02-15T05:31:08;13.23;;;7.70;;
15706;SDS011;7953;54.302;10.128;2024-02-15T05:33:38;16.77;;;9.07;;
15706;SDS011;7953;54.302;10.128;2024-02-15T05:36:07;15.30;;;8.10;;
15706;SDS011;7953;54.302;10.128;2024-02-15T05:38:35;14.13;;;7.80;;
15706;SDS011;7953;54.302;10.128;2024-02-15T05:41:02;14.17;;;8.90;;
15706;SDS011;7953;54.302;10.128;2024-02-15T05:43:29;15.40;;;8.60;;
15706;SDS011;7953;54.302;10.128;2024-02-15T05:45:57;16.60;;;9.87;;
15706;SDS011;7953;54.302;10.128;2024-02-15T05:48:25;16.80;;;9.67;;
15706;SDS011;7953;54.302;10.128;2024-02-15T05:50:54;20.80;;;10.40;;
15706;SDS011;7953;54.302;10.128;2024-02-15T05:53:22;20.50;;;10.43;;
15706;SDS011;7953;54.302;10.128;2024-02-15T05:55:49;17.07;;;9.87;;
15706;SDS011;7953;54.302;10.128;2024-02-15T05:58:16;17.10;;;10.20;;
15706;SDS011;7953;54.302;10.128;2024-02-15T06:00:43;21.50;;;11.70;;
15706;SDS011;7953;54.302;10.128;2024-02-15T06:03:14;20.10;;;11.07;;
15706;SDS011;7953;54.302;10.128;2024-02-15T06:05:41;20.63;;;12.17;;
15706;SDS011;7953;54.302;10.128;2024-02-15T06:08:10;26.10;;;12.80;;
15706;SDS011;7953;54.302;10.128;2024-02-15T06:10:38;20.60;;;10.77;;
15706;SDS011;7953;54.302;10.128;2024-02-15T06:13:05;60.33;;;33.83;;
15706;SDS011;7953;54.302;10.128;2024-02-15T06:15:33;26.90;;;13.43;;
15706;SDS011;7953;54.302;10.128;2024-02-15T06:18:01;26.43;;;14.10;;
15706;SDS011;7953;54.302;10.128;2024-02-15T06:20:33;34.20;;;20.27;;
15706;SDS011;7953;54.302;10.128;2024-02-15T06:23:00;25.30;;;12.60;;
15706;SDS011;7953;54.302;10.128;2024-02-15T06:25:29;22.70;;;12.37;;
15706;SDS011;7953;54.302;10.128;2024-02-15T06:27:56;27.10;;;13.07;;
15706;SDS011;7953;54.302;10.128;2024-02-15T06:30:27;29.03;;;13.37;;
15706;SDS011;7953;54.302;10.128;2024-02-15T06:33:11;25.87;;;14.47;;
15706;SDS011;7953;54.302;10.128;2024-02-15T06:35:56;27.20;;;14.67;;
15706;SDS011;7953;54.302;10.128;2024-02-15T06:38:40;26.47;;;13.13;;
15706;SDS011;7953;54.302;10.128;2024-02-15T06:41:25;30.10;;;14.33;;
15706;SDS011;7953;54.302;10.128;2024-02-15T06:43:54;25.13;;;14.00;;
15706;SDS011;7953;54.302;10.128;2024-02-15T06:46:21;24.80;;;14.77;;
15706;SDS011;7953;54.302;10.128;2024-02-15T06:48:47;29.40;;;15.30;;
15706;SDS011;7953;54.302;10.128;2024-02-15T06:51:14;27.90;;;15.07;;
15706;SDS011;7953;54.302;10.128;2024-02-15T06:53:41;30.67;;;15.03;;
15706;SDS011;7953;54.302;10.128;2024-02-15T06:56:08;30.47;;;15.27;;
15706;SDS011;7953;54.302;10.128;2024-02-15T06:58:36;31.37;;;14.83;;
15706;SDS011;7953;54.302;10.128;2024-02-15T07:01:05;32.30;;;15.40;;
15706;SDS011;7953;54.302;10.128;2024-02-15T07:03:32;30.03;;;14.50;;
15706;SDS011;7953;54.302;10.128;2024-02-15T07:05:59;36.43;;;16.27;;
15706;SDS011;7953;54.302;10.128;2024-02-15T07:08:27;27.90;;;15.93;;
15706;SDS011;7953;54.302;10.128;2024-02-15T07:10:54;39.73;;;17.83;;
15706;SDS011;7953;54.302;10.128;2024-02-15T07:13:21;30.00;;;17.13;;
15706;SDS011;7953;54.302;10.128;2024-02-15T07:15:49;38.27;;;17.33;;
15706;SDS011;7953;54.302;10.128;2024-02-15T07:18:17;34.57;;;16.17;;
15706;SDS011;7953;54.302;10.128;2024-02-15T07:20:45;32.93;;;15.70;;
15706;SDS011;7953;54.302;10.128;2024-02-15T07:23:12;35.33;;;16.20;;
15706;SDS011;7953;54.302;10.128;2024-02-15T07:25:39;32.80;;;15.63;;
15706;SDS011;7953;54.302;10.128;2024-02-15T07:28:07;30.70;;;16.70;;
15706;SDS011;7953;54.302;10.128;2024-02-15T07:30:34;36.70;;;15.23;;
15706;SDS011;7953;54.302;10.128;2024-02-15T07:33:03;29.50;;;15.20;;
15706;SDS011;7953;54.302;10.128;2024-02-15T07:35:31;31.23;;;14.30;;
15706;SDS011;7953;54.302;10.128;2024-02-15T07:38:00;30.20;;;13.40;;
15706;SDS011;7953;54.302;10.128;2024-02-15T07:40:26;29.43;;;14.87;;
15706;SDS011;7953;54.302;10.128;2024-02-15T07:42:54;30.40;;;14.93;;
15706;SDS011;7953;54.302;10.128;2024-02-15T07:45:23;29.47;;;14.90;;
15706;SDS011;7953;54.302;10.128;2024-02-15T07:47:50;30.70;;;15.10;;
15706;SDS011;7953;54.302;10.128;2024-02-15T07:50:18;32.07;;;14.33;;
15706;SDS011;7953;54.302;10.128;2024-02-15T07:52:47;41.57;;;19.83;;
15706;SDS011;7953;54.302;10.128;2024-02-15T07:55:16;34.27;;;16.43;;
15706;SDS011;7953;54.302;10.128;2024-02-15T07:57:43;29.57;;;14.33;;
15706;SDS011;7953;54.302;10.128;2024-02-15T08:00:11;27.87;;;14.70;;
15706;SDS011;7953;54.302;10.128;2024-02-15T08:02:41;30.77;;;14.23;;
15706;SDS011;7953;54.302;10.128;2024-02-15T08:05:09;39.10;;;20.20;;
15706;SDS011;7953;54.302;10.128;2024-02-15T08:07:40;36.07;;;19.17;;
15706;SDS011;7953;54.302;10.128;2024-02-15T08:10:09;29.43;;;13.63;;
15706;SDS011;7953;54.302;10.128;2024-02-15T08:12:38;44.43;;;23.03;;
15706;SDS011;7953;54.302;10.128;2024-02-15T08:15:06;31.80;;;15.63;;
15706;SDS011;7953;54.302;10.128;2024-02-15T08:17:37;39.20;;;22.00;;
15706;SDS011;7953;54.302;10.128;2024-02-15T08:20:05;29.80;;;15.33;;
15706;SDS011;7953;54.302;10.128;2024-02-15T08:22:33;29.57;;;14.43;;
15706;SDS011;7953;54.302;10.128;2024-02-15T08:25:05;31.00;;;15.47;;
15706;SDS011;7953;54.302;10.128;2024-02-15T08:27:35;29.53;;;15.13;;
15706;SDS011;7953;54.302;10.128;2024-02-15T08:30:06;30.27;;;15.40;;
15706;SDS011;7953;54.302;10.128;2024-02-15T08:32:34;27.03;;;13.60;;
15706;SDS011;7953;54.302;10.128;2024-02-15T08:35:01;31.57;;;15.47;;
15706;SDS011;7953;54.302;10.128;2024-02-15T08:37:29;29.87;;;13.87;;
15706;SDS011;7953;54.302;10.128;2024-02-15T08:39:57;30.83;;;16.17;;
15706;SDS011;7953;54.302;10.128;2024-02-15T08:42:26;25.10;;;14.03;;
15706;SDS011;7953;54.302;10.128;2024-02-15T08:44:53;25.60;;;13.27;;
15706;SDS011;7953;54.302;10.128;2024-02-15T08:47:20;36.80;;;20.90;;
15706;SDS011;7953;54.302;10.128;2024-02-15T08:49:47;27.57;;;13.17;;
15706;SDS011;7953;54.302;10.128;2024-02-15T08:52:14;24.50;;;12.30;;
15706;SDS011;7953;54.302;10.128;2024-02-15T08:54:43;27.33;;;14.10;;
15706;SDS011;7953;54.302;10.128;2024-02-15T08:57:10;26.93;;;13.90;;
15706;SDS011;7953;54.302;10.128;2024-02-15T08:59:40;27.97;;;14.63;;
15706;SDS011;7953;54.302;10.128;2024-02-15T09:02:07;30.40;;;14.23;;
15706;SDS011;7953;54.302;10.128;2024-02-15T09:04:34;28.27;;;14.20;;
15706;SDS011;7953;54.302;10.128;2024-02-15T09:07:01;30.90;;;14.77;;
15706;SDS011;7953;54.302;10.128;2024-02-15T09:09:29;28.07;;;14.33;;
15706;SDS011;7953;54.302;10.128;2024-02-15T09:12:00;29.77;;;15.27;;
15706;SDS011;7953;54.302;10.128;2024-02-15T09:14:30;28.87;;;14.87;;
15706;SDS011;7953;54.302;10.128;2024-02-15T09:16:59;32.37;;;14.30;;
15706;SDS011;7953;54.302;10.128;2024-02-15T09:19:26;31.97;;;17.37;;
15706;SDS011;7953;54.302;10.128;2024-02-15T09:21:53;36.87;;;22.10;;
15706;SDS011;7953;54.302;10.128;2024-02-15T09:24:20;31.90;;;14.50;;
15706;SDS011;7953;54.302;10.128;2024-02-15T09:26:50;38.87;;;20.73;;
15706;SDS011;7953;54.302;10.128;2024-02-15T09:29:17;36.97;;;16.80;;
15706;SDS011;7953;54.302;10.128;2024-02-15T09:31:45;41.30;;;23.57;;
15706;SDS011;7953;54.302;10.128;2024-02-15T09:34:14;31.40;;;16.87;;
15706;SDS011;7953;54.302;10.128;2024-02-15T09:36:41;34.53;;;16.33;;
15706;SDS011;7953;54.302;10.128;2024-02-15T09:39:07;33.33;;;16.37;;
15706;SDS011;7953;54.302;10.128;2024-02-15T09:41:38;28.97;;;15.43;;
15706;SDS011;7953;54.302;10.128;2024-02-15T09:44:06;29.40;;;14.50;;
15706;SDS011;7953;54.302;10.128;2024-02-15T09:46:33;31.50;;;16.27;;
15706;SDS011;7953;54.302;10.128;2024-02-15T09:49:03;27.97;;;14.47;;
15706;SDS011;7953;54.302;10.128;2024-02-15T09:51:33;25.40;;;14.27;;
15706;SDS011;7953;54.302;10.128;2024-02-15T09:54:01;25.63;;;15.37;;
15706;SDS011;7953;54.302;10.128;2024-02-15T09:56:28;28.43;;;15.17;;
15706;SDS011;7953;54.302;10.128;2024-02-15T09:58:59;28.57;;;16.47;;
15706;SDS011;7953;54.302;10.128;2024-02-15T10:01:26;30.47;;;16.37;;
15706;SDS011;7953;54.302;10.128;2024-02-15T10:03:55;29.23;;;14.90;;
15706;SDS011;7953;54.302;10.128;2024-02-15T10:06:24;29.07;;;14.33;;
15706;SDS011;7953;54.302;10.128;2024-02-15T10:08:53;27.70;;;15.03;;
15706;SDS011;7953;54.302;10.128;2024-02-15T10:11:44;28.90;;;14.57;;
15706;SDS011;7953;54.302;10.128;2024-02-15T10:14:21;23.33;;;14.13;;
15706;SDS011;7953;54.302;10.128;2024-02-15T10:16:48;24.97;;;13.87;;
15706;SDS011;7953;54.302;10.128;2024-02-15T10:19:14;20.87;;;13.67;;
15706;SDS011;7953;54.302;10.128;2024-02-15T10:21:42;21.87;;;12.77;;
15706;SDS011;7953;54.302;10.128;2024-02-15T10:24:10;22.40;;;12.57;;
15706;SDS011;7953;54.302;10.128;2024-02-15T10:26:37;24.87;;;14.80;;
15706;SDS011;7953;54.302;10.128;2024-02-15T10:29:05;25.03;;;13.13;;
15706;SDS011;7953;54.302;10.128;2024-02-15T10:31:34;25.03;;;12.50;;
15706;SDS011;7953;54.302;10.128;2024-02-15T10:34:04;30.00;;;13.30;;
15706;SDS011;7953;54.302;10.128;2024-02-15T10:36:32;26.80;;;13.80;;
15706;SDS011;7953;54.302;10.128;2024-02-15T10:39:14;28.80;;;14.70;;
15706;SDS011;7953;54.302;10.128;2024-02-15T10:41:44;26.67;;;14.37;;
15706;SDS011;7953;54.302;10.128;2024-02-15T10:44:15;33.73;;;19.67;;
15706;SDS011;7953;54.302;10.128;2024-02-15T10:46:46;28.20;;;15.00;;
15706;SDS011;7953;54.302;10.128;2024-02-15T10:49:18;26.97;;;13.77;;
15706;SDS011;7953;54.302;10.128;2024-02-15T10:51:48;27.10;;;14.90;;
15706;SDS011;7953;54.302;10.128;2024-02-15T10:54:22;24.87;;;14.90;;
15706;SDS011;7953;54.302;10.128;2024-02-15T10:57:04;21.57;;;12.67;;
15706;SDS011;7953;54.302;10.128;2024-02-15T10:59:34;21.53;;;12.80;;
15706;SDS011;7953;54.302;10.128;2024-02-15T11:02:04;25.63;;;13.77;;
15706;SDS011;7953;54.302;10.128;2024-02-15T11:04:59;25.90;;;14.43;;
15706;SDS011;7953;54.302;10.128;2024-02-15T11:07:30;23.40;;;15.60;;
15706;SDS011;7953;54.302;10.128;2024-02-15T11:09:59;22.53;;;13.53;;
15706;SDS011;7953;54.302;10.128;2024-02-15T11:12:28;21.33;;;13.17;;
15706;SDS011;7953;54.302;10.128;2024-02-15T11:14:56;17.70;;;11.33;;
15706;SDS011;7953;54.302;10.128;2024-02-15T11:23:14;18.00;;;11.23;;
15706;SDS011;7953;54.302;10.128;2024-02-15T11:25:53;17.20;;;10.40;;
15706;SDS011;7953;54.302;10.128;2024-02-15T11:28:36;19.13;;;11.00;;
15706;SDS011;7953;54.302;10.128;2024-02-15T11:31:06;15.90;;;10.63;;
15706;SDS011;7953;54.302;10.128;2024-02-15T11:33:38;16.93;;;11.23;;
15706;SDS011;7953;54.302;10.128;2024-02-15T11:36:05;17.60;;;10.53;;
15706;SDS011;7953;54.302;10.128;2024-02-15T11:38:33;20.50;;;12.07;;
15706;SDS011;7953;54.302;10.128;2024-02-15T11:41:05;22.07;;;14.03;;
15706;SDS011;7953;54.302;10.128;2024-02-15T11:43:52;22.57;;;13.40;;
15706;SDS011;7953;54.302;10.128;2024-02-15T11:46:23;22.80;;;13.63;;
15706;SDS011;7953;54.302;10.128;2024-02-15T11:48:54;22.03;;;13.90;;
15706;SDS011;7953;54.302;10.128;2024-02-15T11:51:25;28.40;;;15.60;;
15706;SDS011;7953;54.302;10.128;2024-02-15T11:54:00;30.23;;;16.43;;
15706;SDS011;7953;54.302;10.128;2024-02-15T11:59:38;34.43;;;18.33;;
15706;SDS011;7953;54.302;10.128;2024-02-15T12:02:18;29.13;;;17.13;;
15706;SDS011;7953;54.302;10.128;2024-02-15T12:05:03;28.47;;;17.93;;
15706;SDS011;7953;54.302;10.128;2024-02-15T12:07:50;31.93;;;19.07;;
15706;SDS011;7953;54.302;10.128;2024-02-15T12:10:34;31.33;;;18.60;;
15706;SDS011;7953;54.302;10.128;2024-02-15T12:13:19;33.60;;;19.27;;
15706;SDS011;7953;54.302;10.128;2024-02-15T12:16:04;35.63;;;20.47;;
15706;SDS011;7953;54.302;10.128;2024-02-15T12:18:48;37.40;;;22.03;;
15706;SDS011;7953;54.302;10.128;2024-02-15T12:21:18;41.83;;;20.27;;
15706;SDS011;7953;54.302;10.128;2024-02-15T12:23:48;38.30;;;20.73;;
15706;SDS011;7953;54.302;10.128;2024-02-15T12:26:18;33.30;;;18.83;;
15706;SDS011;7953;54.302;10.128;2024-02-15T12:28:51;36.07;;;19.50;;
15706;SDS011;7953;54.302;10.128;2024-02-15T12:31:19;38.77;;;21.17;;
15706;SDS011;7953;54.302;10.128;2024-02-15T12:33:58;34.83;;;19.23;;
15706;SDS011;7953;54.302;10.128;2024-02-15T12:36:26;30.83;;;19.53;;
15706;SDS011;7953;54.302;10.128;2024-02-15T12:38:58;37.17;;;20.40;;
15706;SDS011;7953;54.302;10.128;2024-02-15T12:41:26;34.63;;;20.13;;
15706;SDS011;7953;54.302;10.128;2024-02-15T12:43:54;30.37;;;19.07;;
15706;SDS011;7953;54.302;10.128;2024-02-15T12:46:22;32.73;;;18.87;;
15706;SDS011;7953;54.302;10.128;2024-02-15T12:49:05;30.77;;;17.63;;
15706;SDS011;7953;54.302;10.128;2024-02-15T12:51:33;30.73;;;19.00;;
15706;SDS011;7953;54.302;10.128;2024-02-15T12:54:07;28.43;;;18.43;;
15706;SDS011;7953;54.302;10.128;2024-02-15T12:56:35;23.80;;;16.07;;
15706;SDS011;7953;54.302;10.128;2024-02-15T12:59:03;28.40;;;19.43;;
15706;SDS011;7953;54.302;10.128;2024-02-15T13:01:31;26.33;;;16.40;;
15706;SDS011;7953;54.302;10.128;2024-02-15T13:03:59;27.73;;;17.80;;
15706;SDS011;7953;54.302;10.128;2024-02-15T13:06:26;24.63;;;16.97;;
15706;SDS011;7953;54.302;10.128;2024-02-15T13:08:53;25.03;;;16.03;;
15706;SDS011;7953;54.302;10.128;2024-02-15T13:11:20;26.10;;;16.90;;
15706;SDS011;7953;54.302;10.128;2024-02-15T13:13:49;21.77;;;15.60;;
15706;SDS011;7953;54.302;10.128;2024-02-15T13:16:17;27.47;;;21.30;;
15706;SDS011;7953;54.302;10.128;2024-02-15T13:18:45;26.07;;;19.00;;
15706;SDS011;7953;54.302;10.128;2024-02-15T13:21:13;22.20;;;16.17;;
15706;SDS011;7953;54.302;10.128;2024-02-15T13:23:39;23.57;;;17.07;;
15706;SDS011;7953;54.302;10.128;2024-02-15T13:26:06;19.40;;;14.10;;
15706;SDS011;7953;54.302;10.128;2024-02-15T13:28:34;26.70;;;16.17;;
15706;SDS011;7953;54.302;10.128;2024-02-15T13:31:01;26.17;;;16.03;;
15706;SDS011;7953;54.302;10.128;2024-02-15T13:33:29;27.87;;;19.17;;
15706;SDS011;7953;54.302;10.128;2024-02-15T13:35:56;21.20;;;16.00;;
15706;SDS011;7953;54.302;10.128;2024-02-15T13:38:23;22.40;;;14.03;;
15706;SDS011;7953;54.302;10.128;2024-02-15T13:40:51;36.10;;;23.70;;
15706;SDS011;7953;54.302;10.128;2024-02-15T13:43:20;19.57;;;14.40;;
15706;SDS011;7953;54.302;10.128;2024-02-15T13:45:47;19.43;;;14.27;;
15706;SDS011;7953;54.302;10.128;2024-02-15T13:48:14;20.20;;;14.00;;
15706;SDS011;7953;54.302;10.128;2024-02-15T13:50:42;25.13;;;16.77;;
15706;SDS011;7953;54.302;10.128;2024-02-15T13:53:09;21.90;;;15.97;;
15706;SDS011;7953;54.302;10.128;2024-02-15T13:55:38;18.83;;;13.47;;
15706;SDS011;7953;54.302;10.128;2024-02-15T13:58:05;16.77;;;13.73;;
15706;SDS011;7953;54.302;10.128;2024-02-15T14:00:37;20.67;;;14.37;;
15706;SDS011;7953;54.302;10.128;2024-02-15T14:03:07;23.50;;;16.30;;
15706;SDS011;7953;54.302;10.128;2024-02-15T14:05:35;17.67;;;12.67;;
15706;SDS011;7953;54.302;10.128;2024-02-15T14:08:06;20.03;;;12.67;;
15706;SDS011;7953;54.302;10.128;2024-02-15T14:10:34;15.63;;;13.13;;
15706;SDS011;7953;54.302;10.128;2024-02-15T14:13:01;17.10;;;13.43;;
15706;SDS011;7953;54.302;10.128;2024-02-15T14:15:30;18.73;;;14.93;;
15706;SDS011;7953;54.302;10.128;2024-02-15T14:17:59;15.60;;;12.97;;
15706;SDS011;7953;54.302;10.128;2024-02-15T14:20:26;15.27;;;12.27;;
15706;SDS011;7953;54.302;10.128;2024-02-15T14:22:53;16.93;;;12.80;;
15706;SDS011;7953;54.302;10.128;2024-02-15T14:25:22;14.57;;;12.93;;
15706;SDS011;7953;54.302;10.128;2024-02-15T14:27:50;14.63;;;11.73;;
15706;SDS011;7953;54.302;10.128;2024-02-15T14:30:18;15.77;;;11.53;;
15706;SDS011;7953;54.302;10.128;2024-02-15T14:33:02;14.23;;;12.67;;
15706;SDS011;7953;54.302;10.128;2024-02-15T14:35:34;13.23;;;10.07;;
15706;SDS011;7953;54.302;10.128;2024-02-15T14:38:02;13.77;;;11.83;;
15706;SDS011;7953;54.302;10.128;2024-02-15T14:40:33;16.37;;;12.80;;
15706;SDS011;7953;54.302;10.128;2024-02-15T14:43:00;19.87;;;14.90;;
15706;SDS011;7953;54.302;10.128;2024-02-15T14:45:27;14.90;;;12.40;;